Time;durP1;ratioP1;P1;durP2;ratioP2;P2;SDS_P1;SDS_P2;PMS_P1;PMS_P2;Temp;Humidity;BMP_temperature;BMP_pressure;BME280_temperature;BME280_humidity;BME280_pressure;Samples;Min_cycle;Max_cycle;Signal;HPM_P1;HPM_P2
2022/09/05 00:00:53;;;;;;;;;;;;;;;;;;5032922;28;19905;-63
2022/09/05 00:03:19;;;;;;;;;;;;;;;;;;5033086;28;19913;-63
2022/09/05 00:05:45;;;;;;;;;;;;;;;;;;5033151;28;20268;-63
2022/09/05 00:08:10;;;;;;;;;;;18.10;99.90;;;;;;5048421;28;20280;-63
2022/09/05 00:10:48;;;;;;;;;;;18.00;99.90;;;;;;5033090;28;19991;-63
2022/09/05 00:13:14;;;;;;;;;;;;;;;;;;5032539;28;20439;-63
2022/09/05 00:15:40;;;;;;;;;;;;;;;;;;5048290;28;19987;-63
2022/09/05 00:18:06;;;;;;;;;;;;;;;;;;5033346;28;19943;-63
2022/09/05 00:20:32;;;;;;;;;;;18.00;99.90;;;;;;5032676;28;19908;-63
2022/09/05 00:22:58;;;;;;;;;;;;;;;;;;5033369;28;19967;-63
2022/09/05 00:25:24;;;;;;;;;;;;;;;;;;5036611;28;19982;-63
2022/09/05 00:27:50;;;;;;;;;;;;;;;;;;5051905;28;19909;-63
2022/09/05 00:30:16;;;;;;;;;;;;;;;;;;5051879;28;19909;-63
2022/09/05 00:32:42;;;;;;;;;;;;;;;;;;5036474;28;19951;-63
2022/09/05 00:35:08;;;;;;;;;;;;;;;;;;5051465;28;19921;-63
2022/09/05 00:37:34;;;;;;;;;;;;;;;;;;5051708;28;19917;-63
2022/09/05 00:40:00;;;;;;;;;;;;;;;;;;5035733;28;19908;-63
2022/09/05 00:42:26;;;;;;;;;;;;;;;;;;5051288;28;20396;-63
2022/09/05 00:44:52;;;;;;;;;;;;;;;;;;5036253;28;19913;-62
2022/09/05 00:47:18;;;;;;;;;;;;;;;;;;5051513;28;19912;-63
2022/09/05 00:49:44;;;;;;;;;;;;;;;;;;5036196;28;19959;-63
2022/09/05 00:52:10;;;;;;;;;;;;;;;;;;5051414;28;19905;-63
2022/09/05 00:54:36;;;;;;;;;;;;;;;;;;5051413;28;19905;-63
2022/09/05 00:57:02;;;;;;;;;;;;;;;;;;5036053;28;19909;-63
2022/09/05 00:59:33;;;;;;;;;;;;;;;;;;5051381;28;19916;-63
2022/09/05 01:01:59;;;;;;;;;;;;;;;;;;5035638;28;19916;-63
2022/09/05 01:04:25;;;;;;;;;;;;;;;;;;5035933;28;19962;-63
2022/09/05 01:06:51;;;;;;;;;;;;;;;;;;5035814;28;19992;-63
2022/09/05 01:09:17;;;;;;;;;;;;;;;;;;5035849;28;19956;-63
2022/09/05 01:11:43;;;;;;;;;;;;;;;;;;5036104;28;19909;-63
2022/09/05 01:14:09;;;;;;;;;;;;;;;;;;5035341;28;19927;-63
2022/09/05 01:16:35;;;;;;;;;;;;;;;;;;5035663;28;20276;-63
2022/09/05 01:19:01;;;;;;;;;;;;;;;;;;5050995;28;19905;-63
2022/09/05 01:21:27;;;;;;;;;;;;;;;;;;5035196;28;20003;-63
2022/09/05 01:23:53;;;;;;;;;;;;;;;;;;5050845;28;19963;-63
2022/09/05 01:26:19;;;;;;;;;;;;;;;;;;5035464;28;19924;-63
2022/09/05 01:28:45;;;;;;;;;;;;;;;;;;5035477;28;20029;-63
2022/09/05 01:31:11;;;;;;;;;;;;;;;;;;5050678;28;19951;-63
2022/09/05 01:33:37;;;;;;;;;;;;;;;;;;5035663;28;19905;-63
2022/09/05 01:36:03;;;;;;;;;;;;;;;;;;5034027;28;19959;-62
2022/09/05 01:38:29;;;;;;;;;;;;;;;;;;5035238;28;19905;-63
2022/09/05 01:40:55;;;;;;;;;;;;;;;;;;5050547;28;19912;-63
2022/09/05 01:43:22;;;;;;;;;;;;;;;;;;5035157;28;20357;-63
2022/09/05 01:45:58;;;;;;;;;;;17.90;99.90;;;;;;5035106;28;19947;-63
2022/09/05 01:48:24;;;;;;;;;;;;;;;;;;5035045;28;19909;-63
2022/09/05 01:50:50;;;;;;;;;;;;;;;;;;5034820;28;19944;-63
2022/09/05 01:53:35;;;;;;;;;;;17.30;99.90;;;;;;5035321;28;19955;-63
2022/09/05 01:56:12;;;;;;;;;;;17.30;99.90;;;;;;5034915;28;19991;-63
2022/09/05 01:58:46;;;;;;;;;;;17.30;99.90;;;;;;5034870;28;19912;-63
2022/09/05 02:01:18;;;;;;;;;;;17.30;99.90;;;;;;5050139;28;19909;-63
2022/09/05 02:03:56;;;;;;;;;;;17.30;99.90;;;;;;5034829;28;20298;-63
2022/09/05 02:06:39;;;;;;;;;;;17.30;99.90;;;;;;5034755;28;20373;-63
2022/09/05 02:09:08;;;;;;;;;;;17.30;99.90;;;;;;5034696;28;19932;-63
2022/09/05 02:11:44;;;;;;;;;;;17.30;99.90;;;;;;5034324;28;20365;-63
2022/09/05 02:14:10;;;;;;;;;;;17.30;99.90;;;;;;5016279;28;20015;-63
2022/09/05 02:16:35;;;;;;;;;;;17.30;99.90;;;;;;5034518;28;20441;-63
2022/09/05 02:19:13;;;;;;;;;;;17.20;99.90;;;;;;5049769;28;19940;-63
2022/09/05 02:21:53;;;;;;;;;;;17.20;99.90;;;;;;5049342;28;19967;-62
2022/09/05 02:24:27;;;;;;;;;;;17.30;99.90;;;;;;5049555;28;19919;-63
2022/09/05 02:26:52;;;;;;;;;;;17.20;99.90;;;;;;5016498;28;19909;-63
2022/09/05 02:29:28;;;;;;;;;;;17.10;99.90;;;;;;5034351;28;20407;-63
2022/09/05 02:32:00;;;;;;;;;;;17.10;99.90;;;;;;5034511;28;19909;-63
2022/09/05 02:34:44;;;;;;;;;;;17.10;99.90;;;;;;5049469;28;19914;-63
2022/09/05 02:37:23;;;;;;;;;;;17.10;99.90;;;;;;5049454;28;19905;-63
2022/09/05 02:39:52;;;;;;;;;;;17.10;99.90;;;;;;5016396;28;19906;-63
2022/09/05 02:42:31;;;;;;;;;;;17.10;99.90;;;;;;5034099;28;19979;-63
2022/09/05 02:45:05;;;;;;;;;;;17.10;99.90;;;;;;5033699;28;19945;-63
2022/09/05 02:47:51;;;;;;;;;;;17.10;99.90;;;;;;5033754;28;19960;-63
2022/09/05 02:50:21;;;;;;;;;;;17.00;99.90;;;;;;5033957;28;19911;-63
2022/09/05 02:52:47;;;;;;;;;;;17.00;99.90;;;;;;5049119;28;20281;-63
2022/09/05 02:55:13;;;;;;;;;;;;;;;;;;5033855;28;19937;-63
2022/09/05 02:57:39;;;;;;;;;;;;;;;;;;5033809;28;19909;-63
2022/09/05 03:00:06;;;;;;;;;;;;;;;;;;5033576;28;19909;-63
2022/09/05 03:02:35;;;;;;;;;;;16.90;99.90;;;;;;5033723;28;19924;-63
2022/09/05 03:05:06;;;;;;;;;;;16.90;99.90;;;;;;5048999;28;19913;-63
2022/09/05 03:07:51;;;;;;;;;;;16.80;99.90;;;;;;5033667;28;19911;-63
2022/09/05 03:10:20;;;;;;;;;;;16.70;99.90;;;;;;5033678;28;19909;-63
2022/09/05 03:12:46;;;;;;;;;;;;;;;;;;5033631;28;20381;-63
2022/09/05 03:15:12;;;;;;;;;;;;;;;;;;5048748;28;19999;-63
2022/09/05 03:17:38;;;;;;;;;;;;;;;;;;5033597;28;19909;-63
2022/09/05 03:20:04;;;;;;;;;;;;;;;;;;5033583;28;19955;-63
2022/09/05 03:22:30;;;;;;;;;;;;;;;;;;5033709;28;19916;-63
2022/09/05 03:25:02;;;;;;;;;;;16.70;99.90;;;;;;5033460;28;19916;-63
2022/09/05 03:27:51;;;;;;;;;;;16.60;99.90;;;;;;5033503;28;20317;-63
2022/09/05 03:30:21;;;;;;;;;;;16.50;99.90;;;;;;5033422;28;19905;-62
2022/09/05 03:33:05;;;;;;;;;;;16.40;99.90;;;;;;5033417;28;19905;-63
2022/09/05 03:35:31;;;;;;;;;;;16.40;99.90;;;;;;5033410;28;19905;-63
2022/09/05 03:38:14;;;;;;;;;;;16.30;99.90;;;;;;5048657;28;19919;-63
2022/09/05 03:40:42;;;;;;;;;;;16.30;99.90;;;;;;5033126;28;19951;-63
2022/09/05 03:43:28;;;;;;;;;;;16.20;99.90;;;;;;5033251;28;19909;-63
2022/09/05 03:46:12;;;;;;;;;;;16.10;99.90;;;;;;5048705;28;19939;-62
2022/09/05 03:48:41;;;;;;;;;;;16.10;99.90;;;;;;5033607;28;20057;-63
2022/09/05 03:51:15;;;;;;;;;;;16.10;99.90;;;;;;5033652;28;19905;-63
2022/09/05 03:53:50;;;;;;;;;;;16.00;99.90;;;;;;5033285;28;19988;-63
2022/09/05 03:56:37;;;;;;;;;;;16.00;99.90;;;;;;5033251;28;20003;-63
2022/09/05 03:59:02;;;;;;;;;;;16.00;99.90;;;;;;5035413;28;19905;-63
2022/09/05 04:01:34;;;;;;;;;;;16.00;99.90;;;;;;5052343;28;20361;-63
2022/09/05 04:04:06;;;;;;;;;;;16.00;99.90;;;;;;5037097;28;19916;-63
2022/09/05 04:06:32;;;;;;;;;;;16.10;99.90;;;;;;5018949;28;19905;-63
2022/09/05 04:09:18;;;;;;;;;;;16.10;99.90;;;;;;5036941;28;19905;-63
2022/09/05 04:11:49;;;;;;;;;;;16.30;99.90;;;;;;5037227;28;19912;-63
2022/09/05 04:14:33;;;;;;;;;;;16.30;99.90;;;;;;5036742;28;19945;-63
2022/09/05 04:17:22;;;;;;;;;;;16.30;99.90;;;;;;5036813;28;19905;-63
2022/09/05 04:20:01;;;;;;;;;;;16.30;99.90;;;;;;5008085;28;19969;-63
2022/09/05 04:22:37;;;;;;;;;;;16.30;99.90;;;;;;5036628;28;19913;-63
2022/09/05 04:25:12;;;;;;;;;;;16.30;99.90;;;;;;5051957;28;19909;-62
2022/09/05 04:27:47;;;;;;;;;;;16.30;99.90;;;;;;5036569;28;20047;-63
2022/09/05 04:30:31;;;;;;;;;;;16.30;99.90;;;;;;5036358;28;19927;-63
2022/09/05 04:32:57;;;;;;;;;;;16.40;99.90;;;;;;5051872;28;20394;-63
2022/09/05 04:35:23;;;;;;;;;;;16.40;99.90;;;;;;5036764;28;20012;-63
2022/09/05 04:37:55;;;;;;;;;;;16.40;99.90;;;;;;5051705;28;19995;-63
2022/09/05 04:40:34;;;;;;;;;;;16.50;99.90;;;;;;5036355;28;19905;-63
2022/09/05 04:43:17;;;;;;;;;;;16.50;99.90;;;;;;5036183;28;20371;-63
2022/09/05 04:45:47;;;;;;;;;;;16.60;99.90;;;;;;5036242;28;19935;-63
2022/09/05 04:48:15;;;;;;;;;;;16.60;99.90;;;;;;5036258;28;19909;-62
2022/09/05 04:50:50;;;;;;;;;;;16.70;99.90;;;;;;5036213;28;20273;-63
2022/09/05 04:53:16;;;;;;;;;;;16.80;99.90;;;;;;5036124;28;19905;-63
2022/09/05 04:56:03;;;;;;;;;;;16.80;99.90;;;;;;5036038;28;19905;-63
2022/09/05 04:58:32;;;;;;;;;;;16.90;99.90;;;;;;4974716;28;19961;-63
2022/09/05 05:01:24;;;;;;;;;;;16.90;99.90;;;;;;4974524;28;20415;-63
2022/09/05 05:03:50;;;;;;;;;;;;;;;;;;4970797;28;19921;-63
2022/09/05 05:06:16;;;;;;;;;;;;;;;;;;4974589;28;19902;-63
2022/09/05 05:08:42;;;;;;;;;;;;;;;;;;4974329;28;19906;-63
2022/09/05 05:11:08;;;;;;;;;;;;;;;;;;4974584;28;20429;-63
2022/09/05 05:13:42;;;;;;;;;;;16.90;99.90;;;;;;4974199;28;20057;-63
2022/09/05 05:16:14;;;;;;;;;;;17.20;99.90;;;;;;4974396;28;19922;-63
2022/09/05 05:18:43;;;;;;;;;;;17.20;99.90;;;;;;4974378;28;19910;-63
2022/09/05 05:21:18;;;;;;;;;;;17.20;99.90;;;;;;4974372;28;20045;-63
2022/09/05 05:23:49;;;;;;;;;;;17.10;99.90;;;;;;4974280;28;19917;-63
2022/09/05 05:26:27;;;;;;;;;;;17.20;99.90;;;;;;4974229;28;20393;-63
2022/09/05 05:28:57;;;;;;;;;;;17.20;99.90;;;;;;4974107;28;19940;-63
2022/09/05 05:31:25;;;;;;;;;;;17.30;99.90;;;;;;4974090;28;19906;-63
2022/09/05 05:33:53;;;;;;;;;;;17.30;99.90;;;;;;4973664;28;19910;-63
2022/09/05 05:36:21;;;;;;;;;;;17.40;99.90;;;;;;5023279;28;19954;-63
2022/09/05 05:38:50;;;;;;;;;;;17.40;99.90;;;;;;5035168;28;19905;-63
2022/09/05 05:41:20;;;;;;;;;;;17.40;99.90;;;;;;5017118;28;19972;-62
2022/09/05 05:43:47;;;;;;;;;;;17.40;99.90;;;;;;5035128;28;19924;-62
2022/09/05 05:46:22;;;;;;;;;;;17.50;99.90;;;;;;5035135;28;19963;-62
2022/09/05 05:48:48;;;;;;;;;;;17.50;99.90;;;;;;5035386;28;19909;-62
2022/09/05 05:51:14;;;;;;;;;;;17.50;99.90;;;;;;5034798;28;19913;-63
2022/09/05 05:53:58;;;;;;;;;;;17.50;99.90;;;;;;5034950;28;19909;-63
2022/09/05 05:56:24;;;;;;;;;;;17.60;99.90;;;;;;5034902;28;19913;-63
2022/09/05 05:58:52;;;;;;;;;;;17.70;99.90;;;;;;5034912;28;19905;-63
2022/09/05 06:01:37;;;;;;;;;;;17.80;99.90;;;;;;5034777;28;20259;-62
2022/09/05 06:04:21;;;;;;;;;;;17.80;99.90;;;;;;5034770;28;19991;-62
2022/09/05 06:07:05;;;;;;;;;;;17.90;99.90;;;;;;5034998;28;19905;-63
2022/09/05 06:09:49;;;;;;;;;;;18.00;99.90;;;;;;5034267;28;19912;-63
2022/09/05 06:12:33;;;;;;;;;;;18.00;99.90;;;;;;5034110;28;19916;-63
2022/09/05 06:15:05;;;;;;;;;;;18.10;99.90;;;;;;5034269;28;19917;-63
2022/09/05 06:17:45;;;;;;;;;;;18.10;99.90;;;;;;5034398;28;19912;-63
2022/09/05 06:20:41;;;;;;;;;;;18.20;99.90;;;;;;5034297;28;19912;-63
2022/09/05 06:23:12;;;;;;;;;;;18.20;99.90;;;;;;5034285;28;19909;-63
2022/09/05 06:25:43;;;;;;;;;;;18.40;99.90;;;;;;5049568;28;20372;-63
2022/09/05 06:28:12;;;;;;;;;;;18.50;99.90;;;;;;5034231;28;19911;-63
2022/09/05 06:30:43;;;;;;;;;;;18.70;99.90;;;;;;5034090;28;19912;-63
2022/09/05 06:33:31;;;;;;;;;;;18.80;99.90;;;;;;5033960;28;19914;-63
2022/09/05 06:36:03;;;;;;;;;;;18.90;99.90;;;;;;5033926;28;20250;-63
2022/09/05 06:38:50;;;;;;;;;;;19.20;99.90;;;;;;5034112;28;19905;-63
2022/09/05 06:41:19;;;;;;;;;;;19.20;99.90;;;;;;5015686;28;19912;-63
2022/09/05 06:43:44;;;;;;;;;;;19.30;99.90;;;;;;5034044;28;20012;-64
2022/09/05 06:46:29;;;;;;;;;;;19.40;99.90;;;;;;5049274;28;19991;-64
2022/09/05 06:48:58;;;;;;;;;;;19.40;99.90;;;;;;5033927;28;19916;-64
2022/09/05 06:51:43;;;;;;;;;;;19.40;99.90;;;;;;5049216;28;19909;-66
2022/09/05 06:54:09;;;;;;;;;;;19.40;99.90;;;;;;5030209;28;19905;-64
2022/09/05 06:56:35;;;;;;;;;;;19.40;99.90;;;;;;5033341;28;20480;-68
2022/09/05 06:59:03;;;;;;;;;;;19.40;99.90;;;;;;5032147;28;19905;-64
2022/09/05 07:01:32;;;;;;;;;;;19.60;99.90;;;;;;5032101;28;20313;-65
2022/09/05 07:04:08;;;;;;;;;;;19.60;99.90;;;;;;5033222;28;19913;-67
2022/09/05 07:06:40;;;;;;;;;;;19.60;99.90;;;;;;5033397;28;19905;-67
2022/09/05 07:09:21;;;;;;;;;;;19.70;99.90;;;;;;5031968;28;19959;-64
2022/09/05 07:11:46;;;;;;;;;;;19.70;99.90;;;;;;5031836;28;19990;-65
2022/09/05 07:14:12;;;;;;;;;;;19.80;99.90;;;;;;5031539;28;19983;-68
2022/09/05 07:16:37;;;;;;;;;;;19.90;99.90;;;;;;5033557;28;19905;-66
2022/09/05 07:19:04;;;;;;;;;;;19.90;99.90;;;;;;5033490;28;19984;-68
2022/09/05 07:21:36;;;;;;;;;;;19.90;99.90;;;;;;5031673;28;20338;-66
2022/09/05 07:24:02;;;;;;;;;;;20.10;99.90;;;;;;5032762;28;19913;-71
2022/09/05 07:26:30;;;;;;;;;;;20.20;99.90;;;;;;5015385;28;19912;-67
2022/09/05 07:28:58;;;;;;;;;;;20.20;99.90;;;;;;5033238;28;19905;-70
2022/09/05 07:31:26;;;;;;;;;;;20.40;99.90;;;;;;5015230;28;20012;-65
2022/09/05 07:34:05;;;;;;;;;;;20.50;99.90;;;;;;5035456;28;20353;-65
2022/09/05 07:36:33;;;;;;;;;;;20.60;99.90;;;;;;5019847;28;20023;-65
2022/09/05 07:38:59;;;;;;;;;;;20.60;99.90;;;;;;5037049;28;20415;-65
2022/09/05 07:41:27;;;;;;;;;;;20.70;99.90;;;;;;5036106;28;20288;-65
2022/09/05 07:43:57;;;;;;;;;;;20.90;99.90;;;;;;5036951;28;19909;-65
2022/09/05 07:46:31;;;;;;;;;;;20.90;99.90;;;;;;5037358;28;19905;-65
2022/09/05 07:48:59;;;;;;;;;;;21.00;99.90;;;;;;5037297;28;19905;-65
2022/09/05 07:51:29;;;;;;;;;;;21.10;99.90;;;;;;5037438;28;20008;-65
2022/09/05 07:53:57;;;;;;;;;;;21.20;99.90;;;;;;5018938;28;19914;-65
2022/09/05 07:56:38;;;;;;;;;;;21.30;99.90;;;;;;5037108;28;19905;-64
2022/09/05 07:59:07;;;;;;;;;;;21.40;99.90;;;;;;5037050;28;19905;-65
2022/09/05 08:01:33;;;;;;;;;;;21.40;99.90;;;;;;5036881;28;20413;-65
2022/09/05 08:03:59;;;;;;;;;;;21.50;99.90;;;;;;5019150;28;19909;-64
2022/09/05 08:06:25;;;;;;;;;;;21.60;99.90;;;;;;5018971;28;19915;-65
2022/09/05 08:08:53;;;;;;;;;;;21.70;99.90;;;;;;5036624;28;19905;-65
2022/09/05 08:11:21;;;;;;;;;;;21.80;99.90;;;;;;5036906;28;19905;-65
2022/09/05 08:13:56;;;;;;;;;;;21.90;99.90;;;;;;5036280;28;20424;-65
2022/09/05 08:16:22;;;;;;;;;;;22.10;99.90;;;;;;5018986;28;19905;-65
2022/09/05 08:18:48;;;;;;;;;;;22.20;99.90;;;;;;5036386;28;20424;-65
2022/09/05 08:21:22;;;;;;;;;;;22.40;99.90;;;;;;5036648;28;19905;-65
2022/09/05 08:23:47;;;;;;;;;;;22.50;99.90;;;;;;5036411;28;20404;-65
2022/09/05 08:26:32;;;;;;;;;;;22.60;99.90;;;;;;5018765;28;19913;-65
2022/09/05 08:29:20;;;;;;;;;;;22.60;99.90;;;;;;5018606;28;19905;-65
2022/09/05 08:31:51;;;;;;;;;;;22.90;99.90;;;;;;5036171;28;20273;-65
2022/09/05 08:34:20;;;;;;;;;;;23.10;99.90;;;;;;5018598;28;20063;-65
2022/09/05 08:36:49;;;;;;;;;;;23.20;99.90;;;;;;5036373;28;20357;-65
2022/09/05 08:39:19;;;;;;;;;;;23.30;99.90;;;;;;5036238;28;19952;-65
2022/09/05 08:41:57;;;;;;;;;;;23.40;99.90;;;;;;5036138;28;19913;-65
2022/09/05 08:44:31;;;;;;;;;;;23.50;99.90;;;;;;5036157;28;20384;-65
2022/09/05 08:47:03;;;;;;;;;;;23.70;99.90;;;;;;5036073;28;20018;-65
2022/09/05 08:49:32;;;;;;;;;;;23.80;99.90;;;;;;5035840;28;19916;-66
2022/09/05 08:52:02;;;;;;;;;;;23.90;99.90;;;;;;5035945;28;19951;-66
2022/09/05 08:55:02;;;;;;;;;;;24.00;99.90;;;;;;5034537;28;19935;-66
2022/09/05 08:57:40;;;;;;;;;;;24.20;99.90;;;;;;5011401;28;20329;-65
2022/09/05 09:00:07;;;;;;;;;;;24.30;99.90;;;;;;5017855;28;20292;-65
2022/09/05 09:02:47;;;;;;;;;;;24.50;99.90;;;;;;5034435;28;19913;-65
2022/09/05 09:05:13;;;;;;;;;;;24.70;99.90;;;;;;5035527;28;20277;-66
2022/09/05 09:07:39;;;;;;;;;;;24.70;99.90;;;;;;5018136;28;20026;-66
2022/09/05 09:10:11;;;;;;;;;;;24.80;99.90;;;;;;5035696;28;20011;-66
2022/09/05 09:12:46;;;;;;;;;;;25.00;99.90;;;;;;5036078;28;19905;-66
2022/09/05 09:15:31;;;;;;;;;;;25.00;99.90;;;;;;5012354;28;19928;-66
2022/09/05 09:17:57;;;;;;;;;;;25.20;99.90;;;;;;4973538;28;20367;-66
2022/09/05 09:20:45;;;;;;;;;;;25.40;99.90;;;;;;5015736;28;19992;-66
2022/09/05 09:23:23;;;;;;;;;;;25.40;99.90;;;;;;5014346;28;19917;-67
2022/09/05 09:25:57;;;;;;;;;;;25.40;99.90;;;;;;5015741;28;20377;-65
2022/09/05 09:28:41;;;;;;;;;;;25.50;99.90;;;;;;5015304;28;20008;-68
2022/09/05 09:31:22;;;;;;;;;;;25.70;99.90;;;;;;5015428;28;19916;-66
2022/09/05 09:33:50;;;;;;;;;;;26.00;99.90;;;;;;5015318;28;20254;-67
2022/09/05 09:36:24;;;;;;;;;;;26.00;99.90;;;;;;5015382;28;19913;-66
2022/09/05 09:39:13;;;;;;;;;;;26.30;99.90;;;;;;5015369;28;20362;-68
2022/09/05 09:41:48;;;;;;;;;;;26.50;99.90;;;;;;5004565;28;19909;-68
2022/09/05 09:44:32;;;;;;;;;;;26.60;99.90;;;;;;5046992;28;19909;-67
2022/09/05 09:46:58;;;;;;;;;;;26.70;99.90;;;;;;5045903;28;19909;-68
2022/09/05 09:49:42;;;;;;;;;;;26.70;99.90;;;;;;5014299;28;19909;-68
2022/09/05 09:52:18;;;;;;;;;;;26.90;99.90;;;;;;5015108;28;19909;-67
2022/09/05 09:55:03;;;;;;;;;;;27.10;99.90;;;;;;5015044;28;19909;-67
2022/09/05 09:57:44;;;;;;;;;;;27.00;99.90;;;;;;5014143;28;19948;-68
2022/09/05 10:00:21;;;;;;;;;;;27.40;99.90;;;;;;5014625;28;20358;-68
2022/09/05 10:03:01;;;;;;;;;;;27.40;99.90;;;;;;5014934;28;20003;-68
2022/09/05 10:05:45;;;;;;;;;;;27.40;99.90;;;;;;5014852;28;19910;-68
2022/09/05 10:08:13;;;;;;;;;;;27.60;99.90;;;;;;5014906;28;19905;-68
2022/09/05 10:10:42;;;;;;;;;;;28.00;99.90;;;;;;5014816;28;20404;-67
2022/09/05 10:13:14;;;;;;;;;;;28.20;99.90;;;;;;5047446;28;19909;-68
2022/09/05 10:15:45;;;;;;;;;;;28.40;99.90;;;;;;5033717;28;20003;-68
2022/09/05 10:18:30;;;;;;;;;;;28.60;99.90;;;;;;5034104;28;19905;-68
2022/09/05 10:21:03;;;;;;;;;;;28.80;99.90;;;;;;5016175;28;19909;-68
2022/09/05 10:23:32;;;;;;;;;;;29.40;99.90;;;;;;5034018;28;20337;-69
2022/09/05 10:26:00;;;;;;;;;;;29.40;99.90;;;;;;5034067;28;19928;-69
2022/09/05 10:28:26;;;;;;;;;;;29.80;99.90;;;;;;5033871;28;19999;-68
2022/09/05 10:31:02;;;;;;;;;;;30.10;99.90;;;;;;5033573;28;20275;-69
2022/09/05 10:33:35;;;;;;;;;;;31.00;99.90;;;;;;5033985;28;19905;-69
2022/09/05 10:36:21;;;;;;;;;;;31.60;99.90;;;;;;5034082;28;19979;-69
2022/09/05 10:39:10;;;;;;;;;;;31.90;98.10;;;;;;5034036;28;20388;-68
2022/09/05 10:41:45;;;;;;;;;;;32.40;96.50;;;;;;5033937;28;19941;-68
2022/09/05 10:44:12;;;;;;;;;;;33.00;93.60;;;;;;5033861;28;19913;-69
2022/09/05 10:46:45;;;;;;;;;;;34.40;91.00;;;;;;5016039;28;19905;-69
2022/09/05 10:49:12;;;;;;;;;;;34.40;91.20;;;;;;5034014;28;19916;-69
2022/09/05 10:51:46;;;;;;;;;;;35.00;89.30;;;;;;5033549;28;20306;-69
2022/09/05 10:54:19;;;;;;;;;;;35.40;84.20;;;;;;5033508;28;19921;-68
2022/09/05 10:56:47;;;;;;;;;;;35.90;81.70;;;;;;5033802;28;19909;-68
2022/09/05 10:59:25;;;;;;;;;;;36.10;80.80;;;;;;5034099;28;19905;-69
2022/09/05 11:02:03;;;;;;;;;;;36.20;81.90;;;;;;5015768;28;20272;-69
2022/09/05 11:04:44;;;;;;;;;;;36.10;82.10;;;;;;5015963;28;20345;-69
2022/09/05 11:07:14;;;;;;;;;;;36.50;79.40;;;;;;5033462;28;20011;-68
2022/09/05 11:09:46;;;;;;;;;;;36.20;75.70;;;;;;5033568;28;19905;-69
2022/09/05 11:12:31;;;;;;;;;;;36.30;76.30;;;;;;5033480;28;20008;-69
2022/09/05 11:15:04;;;;;;;;;;;37.30;73.50;;;;;;5033507;28;19924;-69
2022/09/05 11:17:47;;;;;;;;;;;37.50;80.10;;;;;;5047502;28;19916;-69
2022/09/05 11:20:13;;;;;;;;;;;;;;;;;;5033432;28;19909;-68
2022/09/05 11:22:41;;;;;;;;;;;37.40;72.60;;;;;;5032958;28;19964;-69
2022/09/05 11:25:35;;;;;;;;;;;37.40;89.70;;;;;;5032961;28;19960;-68
2022/09/05 11:28:00;;;;;;;;;;;;;;;;;;5013663;28;20349;-69
2022/09/05 11:30:30;;;;;;;;;;;37.90;71.50;;;;;;5032540;28;19924;-69
2022/09/05 11:32:56;;;;;;;;;;;;;;;;;;5014498;28;19952;-69
2022/09/05 11:35:25;;;;;;;;;;;38.90;70.20;;;;;;5033427;28;19921;-69
2022/09/05 11:37:53;;;;;;;;;;;39.70;89.80;;;;;;5033325;28;19912;-68
2022/09/05 11:40:22;;;;;;;;;;;39.10;82.50;;;;;;5033320;28;19905;-69
2022/09/05 11:42:47;;;;;;;;;;;39.00;65.70;;;;;;5033127;28;19920;-69
2022/09/05 11:45:22;;;;;;;;;;;39.20;65.40;;;;;;5033275;28;19909;-69
2022/09/05 11:47:54;;;;;;;;;;;38.80;65.20;;;;;;5015341;28;19911;-69
2022/09/05 11:50:38;;;;;;;;;;;39.00;64.70;;;;;;5033377;28;19933;-70
2022/09/05 11:53:09;;;;;;;;;;;39.70;62.90;;;;;;5033074;28;19905;-69
2022/09/05 11:55:38;;;;;;;;;;;39.70;62.80;;;;;;5015238;28;20218;-70
2022/09/05 11:58:10;;;;;;;;;;;39.90;61.30;;;;;;5015174;28;19905;-69
2022/09/05 12:00:41;;;;;;;;;;;40.60;61.60;;;;;;5032981;28;19913;-70
2022/09/05 12:03:19;;;;;;;;;;;40.60;60.90;;;;;;5032937;28;20020;-70
2022/09/05 12:06:04;;;;;;;;;;;40.50;60.00;;;;;;5032866;28;19909;-70
2022/09/05 12:08:34;;;;;;;;;;;41.00;61.50;;;;;;5033005;28;19905;-70
2022/09/05 12:11:04;;;;;;;6.35;5.75;;;;;;;;;;5032432;28;19912;-70
2022/09/05 12:13:38;;;;;;;6.25;5.00;;;41.10;59.70;;;;;;5032212;28;20049;-69
2022/09/05 12:16:41;;;;;;;7.43;5.43;;;41.40;58.90;;;;;;5032184;28;19909;-69
2022/09/05 12:19:20;;;;;;;7.00;6.20;;;41.10;60.00;;;;;;5032990;28;20423;-69
2022/09/05 12:21:52;;;;;;;6.40;5.90;;;;;;;;;;5036125;28;20040;-69
2022/09/05 12:24:53;;;;;;;5.70;5.07;;;42.50;77.00;;;;;;5018413;28;20091;-69
2022/09/05 12:27:23;;;;;;;5.70;5.20;;;42.20;65.70;;;;;;5036375;28;20370;-69
2022/09/05 12:29:54;;;;;;;6.15;4.70;;;42.50;57.80;;;;;;5036092;28;20034;-70
2022/09/05 12:32:24;;;;;;;5.60;4.72;;;42.50;68.90;;;;;;5036097;28;20034;-70
2022/09/05 12:34:56;;;;;;;5.72;4.50;;;42.80;57.70;;;;;;5036079;28;20049;-70
2022/09/05 12:37:22;;;;;;;4.90;4.40;;;;;;;;;;5035969;28;20036;-70
2022/09/05 12:39:58;;;;;;;6.28;4.93;;;;;;;;;;5035929;28;20100;-71
2022/09/05 12:43:01;;;;;;;4.78;4.38;;;43.10;55.20;;;;;;5035886;28;20072;-70
2022/09/05 12:45:41;;;;;;;;;;;42.20;55.80;;;;;;5036069;28;20021;-70
2022/09/05 12:48:06;;;;;;;;;;;41.60;56.30;;;;;;5036210;28;19920;-70
2022/09/05 12:50:39;;;;;;;;;;;39.90;58.10;;;;;;5018097;28;19905;-71
2022/09/05 12:53:05;;;;;;;;;;;;;;;;;;5036036;28;19909;-70
2022/09/05 12:55:35;;;;;;;;;;;;;;;;;;5036169;28;19911;-69
2022/09/05 12:58:02;;;;;;;;;;;35.70;61.50;;;;;;5018090;28;19916;-70
2022/09/05 13:00:27;;;;;;;;;;;;;;;;;;5036006;28;19950;-70
2022/09/05 13:02:53;;;;;;;;;;;;;;;;;;5035846;28;20373;-69
2022/09/05 13:05:24;;;;;;;;;;;33.10;65.40;;;;;;5035879;28;20272;-69
2022/09/05 13:07:54;;;;;;;;;;;33.20;67.20;;;;;;5034724;28;19952;-67
2022/09/05 13:10:20;;;;;;;;;;;;;;;;;;5035070;28;19905;-66
2022/09/05 13:12:46;;;;;;;;;;;;;;;;;;5035293;28;19963;-65
2022/09/05 13:15:18;;;;;;;;;;;31.10;71.10;;;;;;5050640;28;19921;-66
2022/09/05 13:18:09;;;;;;;;;;;30.70;70.10;;;;;;5035431;28;19909;-67
2022/09/05 13:20:38;;;;;;;;;;;30.50;70.70;;;;;;5035434;28;19905;-65
2022/09/05 13:23:18;;;;;;;;;;;30.10;71.50;;;;;;5035316;28;19913;-67
2022/09/05 13:25:57;;;;;;;;;;;29.60;72.10;;;;;;5035456;28;19905;-67
2022/09/05 13:28:41;;;;;;;;;;;29.40;74.50;;;;;;5035355;28;19905;-67
2022/09/05 13:31:08;;;;;;;;;;;29.30;78.10;;;;;;5034032;28;19913;-67
2022/09/05 13:33:53;;;;;;;;;;;29.10;78.20;;;;;;5035282;28;19948;-66
2022/09/05 13:36:23;;;;;;;;;;;29.00;80.20;;;;;;5035225;28;19940;-70
2022/09/05 13:38:57;;;;;;;;;;;28.80;82.00;;;;;;5034836;28;19905;-69
2022/09/05 13:41:30;;;;;;;;;;;28.80;81.70;;;;;;5035202;28;20417;-66
2022/09/05 13:43:58;;;;;;;;;;;29.50;82.60;;;;;;5034884;28;19921;-67
2022/09/05 13:46:41;;;;;;;;;;;29.60;82.50;;;;;;5035127;28;19905;-67
2022/09/05 13:49:19;;;;;;;;;;;32.60;77.60;;;;;;5035061;28;19905;-68
2022/09/05 13:51:50;;;;;;;;;;;34.90;75.00;;;;;;5034974;28;19994;-70
2022/09/05 13:54:17;;;;;;;;;;;37.50;66.70;;;;;;5034829;28;19971;-66
2022/09/05 13:57:03;;;;;;;;;;;39.30;60.00;;;;;;5034636;28;19912;-69
2022/09/05 13:59:32;;;;;;;;;;;39.70;62.10;;;;;;5003697;28;19996;-70
2022/09/05 14:02:01;;;;;;;;;;;39.70;57.90;;;;;;5034428;28;20008;-70
2022/09/05 14:04:29;;;;;;;;;;;36.70;60.10;;;;;;5034683;28;19905;-68
2022/09/05 14:07:00;;;;;;;;;;;34.00;67.40;;;;;;5034556;28;19917;-68
2022/09/05 14:09:26;;;;;;;;;;;33.70;69.30;;;;;;5049773;28;20269;-69
2022/09/05 14:12:10;;;;;;;;;;;33.20;69.20;;;;;;5034695;28;19905;-69
2022/09/05 14:14:43;;;;;;;;;;;32.70;72.20;;;;;;5013034;28;19932;-67
2022/09/05 14:17:28;;;;;;;;;;;34.20;71.10;;;;;;5014686;28;19905;-70
2022/09/05 14:23:01;;;;;;;;;;;34.00;70.80;;;;;;5014529;28;19921;-74
2022/09/05 14:25:28;;;;;;;;;;;33.50;72.80;;;;;;5011087;28;19928;-70
2022/09/05 14:27:54;;;;;;;;;;;34.70;72.60;;;;;;5013089;28;20418;-68
2022/09/05 14:30:49;;;;;;;;;;;34.20;72.20;;;;;;5014495;28;19911;-67
2022/09/05 14:33:19;;;;;;;;;;;34.90;71.60;;;;;;5013304;28;20270;-68
2022/09/05 14:35:48;;;;;;;;;;;35.80;70.90;;;;;;5014492;28;20346;-73
2022/09/05 14:38:20;;;;;;;;;;;37.20;68.40;;;;;;5014273;28;20005;-73
2022/09/05 14:40:45;;;;;;;;;;;38.60;66.30;;;;;;5013028;28;19909;-74
2022/09/05 14:43:14;;;;;;;;;;;38.90;66.30;;;;;;5012390;28;19918;-72
2022/09/05 14:45:58;;;;;;;;;;;38.40;65.40;;;;;;5014300;28;20040;-75
2022/09/05 14:48:24;;;;;;;;;;;;;;;;;;5014145;28;19913;-75
2022/09/05 14:50:56;;;;;;;;;;;37.70;65.70;;;;;;5014140;28;19906;-74
2022/09/05 14:53:23;;;;;;;;;;;34.70;69.60;;;;;;5014220;28;20408;-74
2022/09/05 14:56:09;;;;;;;;;;;34.00;70.70;;;;;;5014122;28;19912;-75
2022/09/05 14:58:35;;;;;;;;;;;33.10;72.90;;;;;;5014054;28;19909;-73
2022/09/05 15:01:01;;;;;;;;;;;;;;;;;;5012653;28;19917;-73
2022/09/05 15:03:33;;;;;;;;;;;32.60;74.60;;;;;;5012577;28;19913;-73
2022/09/05 15:05:59;;;;;;;;;;;33.00;75.50;;;;;;5013874;28;19909;-74
2022/09/05 15:08:28;;;;;;;;;;;34.60;73.70;;;;;;5013726;28;19909;-75
2022/09/05 15:10:55;;;;;;;;;;;35.80;71.90;;;;;;5012592;28;19906;-74
2022/09/05 15:13:22;;;;;;;;;;;36.60;70.00;;;;;;5016678;28;20003;-73